• Join FlightAware (Why Join?)
  • Login
  • US Flag 
Rudolph Flight #1: Arrived! 
08:54PM EST


 

Airport Tracker/Info


-or-


 

Live Flight TrackerFlight Track Log ✈ DAL6032 ✈ 25-Apr-2013 ✈ KMEM - KCMH

Flight Track Log - Related Links

Times and Time Zones

All times are in EDT time to prevent confusion due to time zone crossing. See the DAL6032 flight status page for this flight to view local times or setup timezone preferences in your user account.

Time Position Orientation Groundspeed Altitude Reporting Facility
EDT Latitude Longitude Course Direction KTS MPH feet Rate Location/Type
09:56PM 35.0500 -89.9833 73° East 168 193 900  Level KMEM
09:58PM 35.1167 -89.9500 22° Northeast 212 244 2,900 1,860 Climbing KMEM
09:59PM 35.1333 -89.8833 73° East 249 287 5,300 2,160 Climbing KMEM
10:00PM 35.1537 -89.4560 72° East  Level FlightAware Approximate
10:00PM 35.1500 -89.8000 76° East 264 304 7,500  Level KMEM
10:01PM 35.1876 -89.3295 72° East  Level FlightAware Approximate
10:02PM 35.2202 -89.2025 73° East  Level FlightAware Approximate
10:02PM 35.1783 -89.6203 79° East 302 348 10,600  Level Memphis Center
10:03PM 35.1964 -89.5058 79° East 324 373 11,600 1,020 Climbing Memphis Center
10:04PM 35.2122 -89.3836 81° East 361 415 12,700 1,020 Climbing Memphis Center
10:05PM 35.2236 -89.2514 84° East 381 438 13,700 960 Climbing Memphis Center
10:06PM 35.2556 -89.1111 74° East 394 453 14,700 1,020 Climbing Memphis Center
10:07PM 35.3233 -89.0083 51° Northeast 382 440 15,800 1,020 Climbing Memphis Center
10:08PM 35.3931 -88.9003 52° Northeast 387 445 16,800 960 Climbing Memphis Center
10:09PM 35.4606 -88.7969 51° Northeast 392 451 17,800 780 Climbing Memphis Center
10:10PM 35.5322 -88.6886 51° Northeast 397 457 18,400 600 Climbing Memphis Center
10:11PM 35.6036 -88.5772 52° Northeast 403 464 19,000 300 Climbing Memphis Center
10:12PM 35.6789 -88.4606 52° Northeast 414 476 19,000  Level Memphis Center
10:13PM 35.7564 -88.3386 52° Northeast 428 493 19,000 420 Level Memphis Center
10:14PM 35.8314 -88.2192 52° Northeast 435 501 19,900 900 Climbing Memphis Center
10:15PM 35.9067 -88.1069 50° Northeast 435 501 20,900 960 Climbing Memphis Center
10:16PM 35.9731 -87.9819 57° Northeast 430 495 21,900 960 Climbing Memphis Center
10:17PM 36.0331 -87.8467 61° Northeast 441 507 22,900 960 Climbing Memphis Center
10:18PM 36.0928 -87.7114 61° Northeast 441 507 23,900 900 Climbing Memphis Center
10:19PM 36.1422 -87.5914 63° Northeast 441 507 24,700 900 Climbing Memphis Center
10:20PM 36.2017 -87.4531 62° Northeast 441 507 25,700 960 Climbing Memphis Center
10:21PM 36.2589 -87.3172 62° Northeast 441 507 26,700 960 Climbing Memphis Center
10:22PM 36.3483 -87.2264 39° Northeast 414 476 27,700 960 Climbing Memphis Center
10:23PM 36.4381 -87.1456 36° Northeast 402 463 28,700 960 Climbing Memphis Center
10:24PM 36.5358 -87.0564 36° Northeast 402 463 29,700 960 Climbing Memphis Center
10:25PM 36.6253 -86.9725 37° Northeast 402 463 30,700 960 Climbing Memphis Center
10:27PM 36.8044 -86.8047 37° Northeast 403 464 32,700 720 Climbing Indianapolis Center
10:28PM 36.8967 -86.7200 36° Northeast 407 468 33,000 120 Climbing Indianapolis Center
10:29PM 36.9939 -86.6308 36° Northeast 425 489 33,000  Level Indianapolis Center
10:30PM 37.0936 -86.5367 37° Northeast 442 509 33,000  Level Indianapolis Center
10:31PM 37.1928 -86.4436 37° Northeast 441 507 33,000  Level Indianapolis Center
10:32PM 37.2914 -86.3511 37° Northeast 439 505 33,000  Level Indianapolis Center
10:33PM 37.3900 -86.2600 36° Northeast 437 503 33,000  Level Indianapolis Center
10:34PM 37.4900 -86.1661 37° Northeast 442 509 33,000  Level Indianapolis Center
10:35PM 37.6000 -86.0656 36° Northeast 443 510 33,000  Level Indianapolis Center
10:36PM 37.6997 -85.9706 37° Northeast 448 516 33,000  Level Indianapolis Center
10:37PM 37.7986 -85.8778 37° Northeast 444 511 33,000  Level Indianapolis Center
10:38PM 37.8978 -85.7839 37° Northeast 445 512 33,000  Level Indianapolis Center
10:39PM 37.9969 -85.6892 37° Northeast 446 513 33,000 -540 Level Indianapolis Center
10:40PM 38.0953 -85.5956 37° Northeast 444 511 32,000 -1,020 Descending Indianapolis Center
10:41PM 38.1942 -85.5014 37° Northeast 443 510 31,000 -540 Descending Indianapolis Center
10:42PM 38.2947 -85.4058 37° Northeast 449 517 31,000  Level Indianapolis Center
10:43PM 38.3947 -85.3083 37° Northeast 454 522 31,000  Level Indianapolis Center
10:44PM 38.5119 -85.1967 37° Northeast 452 520 31,000 -60 Level Indianapolis Center
10:45PM 38.6111 -85.1003 37° Northeast 448 516 30,900 -840 Descending Indianapolis Center
10:46PM 38.7103 -85.0033 37° Northeast 450 518 29,400 -1,680 Descending Indianapolis Center
10:47PM 38.8075 -84.9083 37° Northeast 442 509 27,600 -1,980 Descending Indianapolis Center
10:48PM 38.9058 -84.8122 37° Northeast 441 507 25,400 -1,740 Descending Indianapolis Center
10:49PM 39.0042 -84.7142 38° Northeast 440 506 24,100 -960 Descending Indianapolis Center
10:50PM 39.0822 -84.5842 52° Northeast 463 533 23,500 -840 Descending Indianapolis Center
10:51PM 39.1558 -84.4508 55° Northeast 454 522 22,500 -1,020 Descending Indianapolis Center
10:52PM 39.2294 -84.3178 54° Northeast 453 521 21,500 -1,020 Descending Indianapolis Center
10:53PM 39.2975 -84.1883 56° Northeast 437 503 20,500 -1,020 Descending Indianapolis Center
10:54PM 39.3519 -84.0467 64° Northeast 436 502 19,500 -780 Descending Indianapolis Center
10:55PM 39.4069 -83.9053 63° Northeast 438 504 19,000 -1,020 Descending Indianapolis Center
10:56PM 39.4586 -83.7669 64° Northeast 426 490 17,500 -2,100 Descending Indianapolis Center
10:57PM 39.5103 -83.6339 63° Northeast 415 478 14,800 -3,120 Descending Indianapolis Center
10:58PM 39.5508 -83.5297 63° Northeast 394 453 12,300 -3,480 Descending Indianapolis Center
10:58PM 39.5664 -83.4861 65° Northeast 390 449 11,300 -1,320 Descending Indianapolis Center
10:59PM 39.5992 -83.4083 61° Northeast 374 430 11,000 -540 Descending Indianapolis Center
10:59PM 39.6164 -83.3681 61° Northeast 375 432 10,800 -900 Descending Indianapolis Center
11:00PM 39.6458 -83.2867 65° Northeast 379 436 10,100 -840 Descending Indianapolis Center
11:00PM 39.6606 -83.2458 65° Northeast 374 430 10,000 -120 Descending Indianapolis Center
11:01PM 39.6894 -83.1728 63° Northeast 343 395 10,000  Level Indianapolis Center
11:01PM 39.7022 -83.1333 67° East 349 402 10,000 -120 Level Indianapolis Center
11:02PM 39.7261 -83.0658 65° Northeast 298 343 9,900 -600 Descending Indianapolis Center
11:02PM 39.7375 -83.0336 65° Northeast 303 349 9,400 -1,500 Descending Indianapolis Center
11:03PM 39.7597 -82.9722 65° Northeast 282 325 8,400 -1,500 Descending Indianapolis Center
11:03PM 39.7747 -82.9439 55° Northeast 284 327 7,900 -1,560 Descending Indianapolis Center
11:04PM 39.8197 -82.8894 43° Northeast 287 330 6,700 -1,620 Descending Indianapolis Center
11:04PM 39.8325 -82.8719 46° Northeast 285 328 6,300 -1,440 Descending Indianapolis Center
11:05PM 39.8747 -82.8169 45° Northeast 289 333 5,300 -1,200 Descending Indianapolis Center
11:05PM 39.8883 -82.7975 48° Northeast 286 329 5,100 -1,020 Descending Indianapolis Center
11:06PM 39.9233 -82.7489 47° Northeast 247 284 4,300 -1,200 Descending Indianapolis Center
11:06PM 39.9358 -82.7317 47° Northeast 265 305 3,900 -1,320 Descending Indianapolis Center
11:07PM 39.9786 -82.7361 355° North 228 262 3,100 -1,020 Descending Indianapolis Center
11:07PM 39.9939 -82.7483 328° Northwest 245 282 2,900 -720 Descending Indianapolis Center
11:08PM 39.9961 -82.7869 274° West 155 178 2,400 -960 Descending Indianapolis Center